sensor_id;sensor_type;location;lat;lon;timestamp;temperature;humidity
2300;DHT22;1158;48.750;9.078;2022-12-29T00:01:23;8.70;99.90
2300;DHT22;1158;48.750;9.078;2022-12-29T00:03:49;8.70;99.90
2300;DHT22;1158;48.750;9.078;2022-12-29T00:06:16;8.80;99.90
2300;DHT22;1158;48.750;9.078;2022-12-29T00:08:43;8.90;99.90
2300;DHT22;1158;48.750;9.078;2022-12-29T00:11:11;9.00;99.90
2300;DHT22;1158;48.750;9.078;2022-12-29T00:13:40;9.00;99.90
2300;DHT22;1158;48.750;9.078;2022-12-29T00:16:24;9.00;99.90
2300;DHT22;1158;48.750;9.078;2022-12-29T00:18:51;9.00;99.90
2300;DHT22;1158;48.750;9.078;2022-12-29T00:21:20;9.00;99.90
2300;DHT22;1158;48.750;9.078;2022-12-29T00:24:04;9.00;99.90
2300;DHT22;1158;48.750;9.078;2022-12-29T00:26:55;9.10;99.90
2300;DHT22;1158;48.750;9.078;2022-12-29T00:29:50;9.00;99.90
2300;DHT22;1158;48.750;9.078;2022-12-29T00:32:36;9.00;99.90
2300;DHT22;1158;48.750;9.078;2022-12-29T00:35:26;9.00;99.90
2300;DHT22;1158;48.750;9.078;2022-12-29T00:37:55;9.00;99.90
2300;DHT22;1158;48.750;9.078;2022-12-29T00:40:41;9.10;99.90
2300;DHT22;1158;48.750;9.078;2022-12-29T00:43:25;9.20;99.90
2300;DHT22;1158;48.750;9.078;2022-12-29T00:46:10;9.20;99.90
2300;DHT22;1158;48.750;9.078;2022-12-29T00:48:37;9.20;99.90
2300;DHT22;1158;48.750;9.078;2022-12-29T00:51:21;9.40;99.90
2300;DHT22;1158;48.750;9.078;2022-12-29T00:53:49;9.30;99.90
2300;DHT22;1158;48.750;9.078;2022-12-29T00:56:15;9.30;99.90
2300;DHT22;1158;48.750;9.078;2022-12-29T00:58:42;9.20;99.90
2300;DHT22;1158;48.750;9.078;2022-12-29T01:01:10;9.20;99.90
2300;DHT22;1158;48.750;9.078;2022-12-29T01:03:37;9.20;99.90
2300;DHT22;1158;48.750;9.078;2022-12-29T01:06:06;9.30;99.90
2300;DHT22;1158;48.750;9.078;2022-12-29T01:08:33;9.30;99.90
2300;DHT22;1158;48.750;9.078;2022-12-29T01:11:01;9.30;99.90
2300;DHT22;1158;48.750;9.078;2022-12-29T01:13:27;9.40;99.90
2300;DHT22;1158;48.750;9.078;2022-12-29T01:15:54;9.40;99.90
2300;DHT22;1158;48.750;9.078;2022-12-29T01:18:23;9.30;99.90
2300;DHT22;1158;48.750;9.078;2022-12-29T01:20:50;9.40;99.90
2300;DHT22;1158;48.750;9.078;2022-12-29T01:23:16;9.40;99.90
2300;DHT22;1158;48.750;9.078;2022-12-29T01:25:43;9.50;99.90
2300;DHT22;1158;48.750;9.078;2022-12-29T01:28:10;9.50;99.90
2300;DHT22;1158;48.750;9.078;2022-12-29T01:30:36;9.60;99.90
2300;DHT22;1158;48.750;9.078;2022-12-29T01:33:03;9.50;99.90
2300;DHT22;1158;48.750;9.078;2022-12-29T01:35:31;9.40;99.90
2300;DHT22;1158;48.750;9.078;2022-12-29T01:37:58;9.40;99.90
2300;DHT22;1158;48.750;9.078;2022-12-29T01:40:25;9.50;99.90
2300;DHT22;1158;48.750;9.078;2022-12-29T01:42:52;9.50;99.90
2300;DHT22;1158;48.750;9.078;2022-12-29T01:45:18;9.60;99.90
2300;DHT22;1158;48.750;9.078;2022-12-29T01:47:52;9.50;99.90
2300;DHT22;1158;48.750;9.078;2022-12-29T01:50:23;9.60;99.90
2300;DHT22;1158;48.750;9.078;2022-12-29T01:52:59;9.70;99.90
2300;DHT22;1158;48.750;9.078;2022-12-29T01:55:27;9.70;99.90
2300;DHT22;1158;48.750;9.078;2022-12-29T01:57:57;9.70;99.90
2300;DHT22;1158;48.750;9.078;2022-12-29T02:00:26;9.70;99.90
2300;DHT22;1158;48.750;9.078;2022-12-29T02:02:53;9.70;99.90
2300;DHT22;1158;48.750;9.078;2022-12-29T02:05:25;9.70;99.90
2300;DHT22;1158;48.750;9.078;2022-12-29T02:07:55;9.70;99.90
2300;DHT22;1158;48.750;9.078;2022-12-29T02:10:23;9.80;99.90
2300;DHT22;1158;48.750;9.078;2022-12-29T02:12:51;9.80;99.90
2300;DHT22;1158;48.750;9.078;2022-12-29T02:15:21;9.70;99.90
2300;DHT22;1158;48.750;9.078;2022-12-29T02:18:03;9.70;99.90
2300;DHT22;1158;48.750;9.078;2022-12-29T02:21:10;9.60;99.90
2300;DHT22;1158;48.750;9.078;2022-12-29T02:26:54;9.60;99.90
2300;DHT22;1158;48.750;9.078;2022-12-29T02:29:50;9.70;99.90
2300;DHT22;1158;48.750;9.078;2022-12-29T02:32:28;9.70;99.90
2300;DHT22;1158;48.750;9.078;2022-12-29T02:35:02;9.70;99.90
2300;DHT22;1158;48.750;9.078;2022-12-29T02:37:37;9.80;99.90
2300;DHT22;1158;48.750;9.078;2022-12-29T02:40:13;9.90;99.90
2300;DHT22;1158;48.750;9.078;2022-12-29T02:42:46;9.80;99.90
2300;DHT22;1158;48.750;9.078;2022-12-29T02:45:21;9.80;99.90
2300;DHT22;1158;48.750;9.078;2022-12-29T02:47:54;9.80;99.90
2300;DHT22;1158;48.750;9.078;2022-12-29T02:50:25;9.90;99.90
2300;DHT22;1158;48.750;9.078;2022-12-29T02:52:59;9.90;99.90
2300;DHT22;1158;48.750;9.078;2022-12-29T02:55:26;10.00;99.90
2300;DHT22;1158;48.750;9.078;2022-12-29T02:58:13;10.00;99.90
2300;DHT22;1158;48.750;9.078;2022-12-29T03:00:54;9.90;99.90
2300;DHT22;1158;48.750;9.078;2022-12-29T03:03:31;10.00;99.90
2300;DHT22;1158;48.750;9.078;2022-12-29T03:06:10;10.10;99.90
2300;DHT22;1158;48.750;9.078;2022-12-29T03:08:46;10.20;99.90
2300;DHT22;1158;48.750;9.078;2022-12-29T03:11:15;10.10;99.90
2300;DHT22;1158;48.750;9.078;2022-12-29T03:14:00;10.20;99.90
2300;DHT22;1158;48.750;9.078;2022-12-29T03:16:48;10.30;99.90
2300;DHT22;1158;48.750;9.078;2022-12-29T03:19:21;10.30;99.90
2300;DHT22;1158;48.750;9.078;2022-12-29T03:21:52;10.40;99.90
2300;DHT22;1158;48.750;9.078;2022-12-29T03:24:41;10.50;99.90
2300;DHT22;1158;48.750;9.078;2022-12-29T03:27:12;10.50;99.90
2300;DHT22;1158;48.750;9.078;2022-12-29T03:29:44;10.50;99.90
2300;DHT22;1158;48.750;9.078;2022-12-29T03:32:13;10.60;99.90
2300;DHT22;1158;48.750;9.078;2022-12-29T03:34:42;10.70;99.90
2300;DHT22;1158;48.750;9.078;2022-12-29T03:37:12;10.60;99.90
2300;DHT22;1158;48.750;9.078;2022-12-29T03:39:39;10.60;99.90
2300;DHT22;1158;48.750;9.078;2022-12-29T03:42:11;10.50;99.90
2300;DHT22;1158;48.750;9.078;2022-12-29T03:44:41;10.50;99.90
2300;DHT22;1158;48.750;9.078;2022-12-29T03:47:10;10.60;99.90
2300;DHT22;1158;48.750;9.078;2022-12-29T03:49:37;10.70;99.90
2300;DHT22;1158;48.750;9.078;2022-12-29T03:52:05;10.60;99.90
2300;DHT22;1158;48.750;9.078;2022-12-29T03:54:32;10.70;99.90
2300;DHT22;1158;48.750;9.078;2022-12-29T03:56:59;10.70;99.90
2300;DHT22;1158;48.750;9.078;2022-12-29T03:59:25;10.60;99.90
2300;DHT22;1158;48.750;9.078;2022-12-29T04:01:52;10.50;99.90
2300;DHT22;1158;48.750;9.078;2022-12-29T04:04:19;10.40;99.90
2300;DHT22;1158;48.750;9.078;2022-12-29T04:06:45;10.30;99.90
2300;DHT22;1158;48.750;9.078;2022-12-29T04:09:13;10.20;99.90
2300;DHT22;1158;48.750;9.078;2022-12-29T04:11:40;10.20;99.90
2300;DHT22;1158;48.750;9.078;2022-12-29T04:14:07;10.20;99.90
2300;DHT22;1158;48.750;9.078;2022-12-29T04:16:33;10.20;99.90
2300;DHT22;1158;48.750;9.078;2022-12-29T04:19:01;10.10;99.90
2300;DHT22;1158;48.750;9.078;2022-12-29T04:21:27;10.10;99.90
2300;DHT22;1158;48.750;9.078;2022-12-29T04:23:54;10.30;99.90
2300;DHT22;1158;48.750;9.078;2022-12-29T04:26:22;10.30;99.90
2300;DHT22;1158;48.750;9.078;2022-12-29T04:28:49;10.20;99.90
2300;DHT22;1158;48.750;9.078;2022-12-29T04:31:15;10.30;99.90
2300;DHT22;1158;48.750;9.078;2022-12-29T04:33:42;10.30;99.90
2300;DHT22;1158;48.750;9.078;2022-12-29T04:36:09;10.20;99.90
2300;DHT22;1158;48.750;9.078;2022-12-29T04:38:35;10.30;99.90
2300;DHT22;1158;48.750;9.078;2022-12-29T04:41:02;10.30;99.90
2300;DHT22;1158;48.750;9.078;2022-12-29T04:43:30;10.20;99.90
2300;DHT22;1158;48.750;9.078;2022-12-29T04:45:57;10.30;99.90
2300;DHT22;1158;48.750;9.078;2022-12-29T04:48:24;10.30;99.90
2300;DHT22;1158;48.750;9.078;2022-12-29T04:50:50;10.40;99.90
2300;DHT22;1158;48.750;9.078;2022-12-29T04:53:17;10.40;99.90
2300;DHT22;1158;48.750;9.078;2022-12-29T04:55:47;10.40;99.90
2300;DHT22;1158;48.750;9.078;2022-12-29T04:58:14;10.40;99.90
2300;DHT22;1158;48.750;9.078;2022-12-29T05:00:42;10.40;99.90
2300;DHT22;1158;48.750;9.078;2022-12-29T05:03:09;10.50;99.90
2300;DHT22;1158;48.750;9.078;2022-12-29T05:05:36;10.50;99.90
2300;DHT22;1158;48.750;9.078;2022-12-29T05:08:03;10.50;99.90
2300;DHT22;1158;48.750;9.078;2022-12-29T05:10:29;10.40;99.90
2300;DHT22;1158;48.750;9.078;2022-12-29T05:12:57;10.40;99.90
2300;DHT22;1158;48.750;9.078;2022-12-29T05:15:25;10.30;99.90
2300;DHT22;1158;48.750;9.078;2022-12-29T05:17:53;10.20;99.90
2300;DHT22;1158;48.750;9.078;2022-12-29T05:20:19;10.10;99.90
2300;DHT22;1158;48.750;9.078;2022-12-29T05:22:46;10.20;99.90
2300;DHT22;1158;48.750;9.078;2022-12-29T05:25:13;10.20;99.90
2300;DHT22;1158;48.750;9.078;2022-12-29T05:27:39;10.10;99.90
2300;DHT22;1158;48.750;9.078;2022-12-29T05:30:07;9.90;99.90
2300;DHT22;1158;48.750;9.078;2022-12-29T05:32:34;10.00;99.90
2300;DHT22;1158;48.750;9.078;2022-12-29T05:35:02;10.00;99.90
2300;DHT22;1158;48.750;9.078;2022-12-29T05:37:29;10.00;99.90
2300;DHT22;1158;48.750;9.078;2022-12-29T05:39:56;10.10;99.90
2300;DHT22;1158;48.750;9.078;2022-12-29T05:42:22;10.10;99.90
2300;DHT22;1158;48.750;9.078;2022-12-29T05:44:49;10.20;99.90
2300;DHT22;1158;48.750;9.078;2022-12-29T05:47:19;10.30;99.90
2300;DHT22;1158;48.750;9.078;2022-12-29T05:49:45;10.30;99.90
2300;DHT22;1158;48.750;9.078;2022-12-29T05:52:13;10.30;99.90
2300;DHT22;1158;48.750;9.078;2022-12-29T05:54:40;10.40;99.90
2300;DHT22;1158;48.750;9.078;2022-12-29T05:57:07;10.50;99.90
2300;DHT22;1158;48.750;9.078;2022-12-29T05:59:34;10.60;99.90
2300;DHT22;1158;48.750;9.078;2022-12-29T06:02:01;10.60;99.90
2300;DHT22;1158;48.750;9.078;2022-12-29T06:04:27;10.70;99.90
2300;DHT22;1158;48.750;9.078;2022-12-29T06:06:54;10.60;99.90
2300;DHT22;1158;48.750;9.078;2022-12-29T06:09:22;10.60;99.90
2300;DHT22;1158;48.750;9.078;2022-12-29T06:11:49;10.60;99.90
2300;DHT22;1158;48.750;9.078;2022-12-29T06:14:15;10.50;99.90
2300;DHT22;1158;48.750;9.078;2022-12-29T06:16:42;10.50;99.90
2300;DHT22;1158;48.750;9.078;2022-12-29T06:19:09;10.50;99.90
2300;DHT22;1158;48.750;9.078;2022-12-29T06:21:35;10.50;99.90
2300;DHT22;1158;48.750;9.078;2022-12-29T06:24:03;10.50;99.90
2300;DHT22;1158;48.750;9.078;2022-12-29T06:26:31;10.60;99.90
2300;DHT22;1158;48.750;9.078;2022-12-29T06:28:58;10.70;99.90
2300;DHT22;1158;48.750;9.078;2022-12-29T06:31:25;10.80;99.90
2300;DHT22;1158;48.750;9.078;2022-12-29T06:33:51;10.80;99.90
2300;DHT22;1158;48.750;9.078;2022-12-29T06:36:18;10.80;99.90
2300;DHT22;1158;48.750;9.078;2022-12-29T06:38:45;10.90;99.90
2300;DHT22;1158;48.750;9.078;2022-12-29T06:41:11;10.80;99.90
2300;DHT22;1158;48.750;9.078;2022-12-29T06:43:39;10.70;99.90
2300;DHT22;1158;48.750;9.078;2022-12-29T06:46:06;10.70;99.90
2300;DHT22;1158;48.750;9.078;2022-12-29T06:48:33;10.60;99.90
2300;DHT22;1158;48.750;9.078;2022-12-29T06:50:59;10.60;99.90
2300;DHT22;1158;48.750;9.078;2022-12-29T06:53:26;10.60;99.90
2300;DHT22;1158;48.750;9.078;2022-12-29T06:55:53;10.50;99.90
2300;DHT22;1158;48.750;9.078;2022-12-29T06:58:22;10.50;99.90
2300;DHT22;1158;48.750;9.078;2022-12-29T07:00:50;10.30;99.90
2300;DHT22;1158;48.750;9.078;2022-12-29T07:03:17;10.30;99.90
2300;DHT22;1158;48.750;9.078;2022-12-29T07:05:44;10.20;99.90
2300;DHT22;1158;48.750;9.078;2022-12-29T07:08:10;10.10;99.90
2300;DHT22;1158;48.750;9.078;2022-12-29T07:10:37;10.10;99.90
2300;DHT22;1158;48.750;9.078;2022-12-29T07:13:04;10.10;99.90
2300;DHT22;1158;48.750;9.078;2022-12-29T07:15:33;10.00;99.90
2300;DHT22;1158;48.750;9.078;2022-12-29T07:18:01;9.90;99.90
2300;DHT22;1158;48.750;9.078;2022-12-29T07:20:28;10.00;99.90
2300;DHT22;1158;48.750;9.078;2022-12-29T07:22:55;9.90;99.90
2300;DHT22;1158;48.750;9.078;2022-12-29T07:25:21;9.90;99.90
2300;DHT22;1158;48.750;9.078;2022-12-29T07:27:48;9.80;99.90
2300;DHT22;1158;48.750;9.078;2022-12-29T07:30:15;9.70;99.90
2300;DHT22;1158;48.750;9.078;2022-12-29T07:32:42;9.70;99.90
2300;DHT22;1158;48.750;9.078;2022-12-29T07:35:10;9.80;99.90
2300;DHT22;1158;48.750;9.078;2022-12-29T07:37:36;9.90;99.90
2300;DHT22;1158;48.750;9.078;2022-12-29T07:40:04;9.90;99.90
2300;DHT22;1158;48.750;9.078;2022-12-29T07:42:31;10.00;99.90
2300;DHT22;1158;48.750;9.078;2022-12-29T07:44:58;10.00;99.90
2300;DHT22;1158;48.750;9.078;2022-12-29T07:47:25;9.90;99.90
2300;DHT22;1158;48.750;9.078;2022-12-29T07:49:52;10.00;99.90
2300;DHT22;1158;48.750;9.078;2022-12-29T07:52:20;10.00;99.90
2300;DHT22;1158;48.750;9.078;2022-12-29T07:54:47;10.00;99.90
2300;DHT22;1158;48.750;9.078;2022-12-29T07:57:13;10.10;99.90
2300;DHT22;1158;48.750;9.078;2022-12-29T07:59:40;10.10;99.90
2300;DHT22;1158;48.750;9.078;2022-12-29T08:02:09;10.10;99.90
2300;DHT22;1158;48.750;9.078;2022-12-29T08:04:36;10.10;99.90
2300;DHT22;1158;48.750;9.078;2022-12-29T08:07:03;10.20;99.90
2300;DHT22;1158;48.750;9.078;2022-12-29T08:09:31;10.20;99.90
2300;DHT22;1158;48.750;9.078;2022-12-29T08:11:57;10.10;99.90
2300;DHT22;1158;48.750;9.078;2022-12-29T08:14:24;10.10;99.90
2300;DHT22;1158;48.750;9.078;2022-12-29T08:16:51;10.20;99.90
2300;DHT22;1158;48.750;9.078;2022-12-29T08:19:17;10.30;99.90
2300;DHT22;1158;48.750;9.078;2022-12-29T08:21:44;10.30;99.90
2300;DHT22;1158;48.750;9.078;2022-12-29T08:24:11;10.30;99.90
2300;DHT22;1158;48.750;9.078;2022-12-29T08:26:39;10.30;99.90
2300;DHT22;1158;48.750;9.078;2022-12-29T08:29:05;10.30;99.90
2300;DHT22;1158;48.750;9.078;2022-12-29T08:31:32;10.50;99.90
2300;DHT22;1158;48.750;9.078;2022-12-29T08:33:59;10.50;99.90
2300;DHT22;1158;48.750;9.078;2022-12-29T08:36:27;10.50;99.90
2300;DHT22;1158;48.750;9.078;2022-12-29T08:38:53;10.60;99.90
2300;DHT22;1158;48.750;9.078;2022-12-29T08:41:20;10.70;99.90
2300;DHT22;1158;48.750;9.078;2022-12-29T08:43:49;10.70;99.90
2300;DHT22;1158;48.750;9.078;2022-12-29T08:46:16;10.70;99.90
2300;DHT22;1158;48.750;9.078;2022-12-29T08:48:43;10.70;99.90
2300;DHT22;1158;48.750;9.078;2022-12-29T08:51:09;10.60;99.90
2300;DHT22;1158;48.750;9.078;2022-12-29T08:53:36;10.60;99.90
2300;DHT22;1158;48.750;9.078;2022-12-29T08:56:04;10.60;99.90
2300;DHT22;1158;48.750;9.078;2022-12-29T08:58:30;10.60;99.90
2300;DHT22;1158;48.750;9.078;2022-12-29T09:00:59;10.60;99.90
2300;DHT22;1158;48.750;9.078;2022-12-29T09:03:26;10.60;99.90
2300;DHT22;1158;48.750;9.078;2022-12-29T09:05:54;10.60;99.90
2300;DHT22;1158;48.750;9.078;2022-12-29T09:08:22;10.60;99.90
2300;DHT22;1158;48.750;9.078;2022-12-29T09:10:49;10.60;99.90
2300;DHT22;1158;48.750;9.078;2022-12-29T09:13:17;10.80;99.90
2300;DHT22;1158;48.750;9.078;2022-12-29T09:15:44;10.90;99.90
2300;DHT22;1158;48.750;9.078;2022-12-29T09:18:12;11.00;99.90
2300;DHT22;1158;48.750;9.078;2022-12-29T09:20:39;11.00;99.90
2300;DHT22;1158;48.750;9.078;2022-12-29T09:23:06;11.00;99.90
2300;DHT22;1158;48.750;9.078;2022-12-29T09:25:33;11.10;99.90
2300;DHT22;1158;48.750;9.078;2022-12-29T09:27:59;11.30;99.90
2300;DHT22;1158;48.750;9.078;2022-12-29T09:30:29;11.40;99.90
2300;DHT22;1158;48.750;9.078;2022-12-29T09:32:56;11.50;99.90
2300;DHT22;1158;48.750;9.078;2022-12-29T09:35:24;11.60;99.90
2300;DHT22;1158;48.750;9.078;2022-12-29T09:37:50;11.80;99.90
2300;DHT22;1158;48.750;9.078;2022-12-29T09:40:25;11.90;99.90
2300;DHT22;1158;48.750;9.078;2022-12-29T09:43:10;12.00;99.90
2300;DHT22;1158;48.750;9.078;2022-12-29T09:45:43;12.20;99.90
2300;DHT22;1158;48.750;9.078;2022-12-29T09:48:16;12.10;99.90
2300;DHT22;1158;48.750;9.078;2022-12-29T09:50:48;12.20;99.90
2300;DHT22;1158;48.750;9.078;2022-12-29T09:53:21;12.30;99.90
2300;DHT22;1158;48.750;9.078;2022-12-29T09:55:51;12.40;99.90
2300;DHT22;1158;48.750;9.078;2022-12-29T09:58:22;12.50;99.90
2300;DHT22;1158;48.750;9.078;2022-12-29T10:00:56;12.40;99.90
2300;DHT22;1158;48.750;9.078;2022-12-29T10:03:31;12.40;99.90
2300;DHT22;1158;48.750;9.078;2022-12-29T10:06:09;12.30;99.90
2300;DHT22;1158;48.750;9.078;2022-12-29T10:08:40;12.30;99.90
2300;DHT22;1158;48.750;9.078;2022-12-29T10:11:17;12.30;99.90
2300;DHT22;1158;48.750;9.078;2022-12-29T10:13:59;12.40;99.90
2300;DHT22;1158;48.750;9.078;2022-12-29T10:16:33;12.40;99.90
2300;DHT22;1158;48.750;9.078;2022-12-29T10:19:13;12.50;99.90
2300;DHT22;1158;48.750;9.078;2022-12-29T10:21:57;12.50;99.90
2300;DHT22;1158;48.750;9.078;2022-12-29T10:24:28;12.50;99.90
2300;DHT22;1158;48.750;9.078;2022-12-29T10:26:58;12.50;99.90
2300;DHT22;1158;48.750;9.078;2022-12-29T10:29:28;12.50;99.90
2300;DHT22;1158;48.750;9.078;2022-12-29T10:32:00;12.50;99.90
2300;DHT22;1158;48.750;9.078;2022-12-29T10:34:31;12.50;99.90
2300;DHT22;1158;48.750;9.078;2022-12-29T10:37:05;12.60;99.90
2300;DHT22;1158;48.750;9.078;2022-12-29T10:39:40;12.60;99.90
2300;DHT22;1158;48.750;9.078;2022-12-29T10:42:13;12.70;99.90
2300;DHT22;1158;48.750;9.078;2022-12-29T10:44:40;13.10;99.90
2300;DHT22;1158;48.750;9.078;2022-12-29T10:47:12;13.10;99.90
2300;DHT22;1158;48.750;9.078;2022-12-29T10:49:41;13.10;99.90
2300;DHT22;1158;48.750;9.078;2022-12-29T10:52:12;13.40;99.90
2300;DHT22;1158;48.750;9.078;2022-12-29T10:54:45;13.80;99.90
2300;DHT22;1158;48.750;9.078;2022-12-29T10:57:19;14.10;99.90
2300;DHT22;1158;48.750;9.078;2022-12-29T10:59:46;14.20;99.90
2300;DHT22;1158;48.750;9.078;2022-12-29T11:02:33;13.90;99.90
2300;DHT22;1158;48.750;9.078;2022-12-29T11:05:07;13.70;99.90
2300;DHT22;1158;48.750;9.078;2022-12-29T11:07:38;13.50;99.90
2300;DHT22;1158;48.750;9.078;2022-12-29T11:10:20;13.20;99.90
2300;DHT22;1158;48.750;9.078;2022-12-29T11:12:56;13.00;99.90
2300;DHT22;1158;48.750;9.078;2022-12-29T11:15:23;12.90;99.90
2300;DHT22;1158;48.750;9.078;2022-12-29T11:17:52;12.80;99.90
2300;DHT22;1158;48.750;9.078;2022-12-29T11:20:34;12.70;99.90
2300;DHT22;1158;48.750;9.078;2022-12-29T11:23:03;12.70;99.90
2300;DHT22;1158;48.750;9.078;2022-12-29T11:25:30;12.70;99.90
2300;DHT22;1158;48.750;9.078;2022-12-29T11:28:00;12.60;99.90
2300;DHT22;1158;48.750;9.078;2022-12-29T11:30:29;12.50;99.90
2300;DHT22;1158;48.750;9.078;2022-12-29T11:32:57;12.40;99.90
2300;DHT22;1158;48.750;9.078;2022-12-29T11:35:33;12.40;99.90
2300;DHT22;1158;48.750;9.078;2022-12-29T11:38:02;12.30;99.90
2300;DHT22;1158;48.750;9.078;2022-12-29T11:40:30;12.20;99.90
2300;DHT22;1158;48.750;9.078;2022-12-29T11:42:59;12.00;99.90
2300;DHT22;1158;48.750;9.078;2022-12-29T11:45:30;11.90;99.90
2300;DHT22;1158;48.750;9.078;2022-12-29T11:48:00;11.60;99.90
2300;DHT22;1158;48.750;9.078;2022-12-29T11:50:30;11.40;99.90
2300;DHT22;1158;48.750;9.078;2022-12-29T11:52:59;11.40;99.90
2300;DHT22;1158;48.750;9.078;2022-12-29T11:55:29;11.40;99.90
2300;DHT22;1158;48.750;9.078;2022-12-29T11:57:58;11.40;99.90
2300;DHT22;1158;48.750;9.078;2022-12-29T12:00:28;11.40;99.90
2300;DHT22;1158;48.750;9.078;2022-12-29T12:02:58;11.30;99.90
2300;DHT22;1158;48.750;9.078;2022-12-29T12:05:33;11.20;99.90
2300;DHT22;1158;48.750;9.078;2022-12-29T12:08:09;11.20;99.90
2300;DHT22;1158;48.750;9.078;2022-12-29T12:10:43;11.20;99.90
2300;DHT22;1158;48.750;9.078;2022-12-29T12:13:18;11.20;99.90
2300;DHT22;1158;48.750;9.078;2022-12-29T12:15:51;11.30;99.90
2300;DHT22;1158;48.750;9.078;2022-12-29T12:18:24;11.30;99.90
2300;DHT22;1158;48.750;9.078;2022-12-29T12:20:57;11.30;99.90
2300;DHT22;1158;48.750;9.078;2022-12-29T12:23:33;11.30;99.90
2300;DHT22;1158;48.750;9.078;2022-12-29T12:26:11;11.30;99.90
2300;DHT22;1158;48.750;9.078;2022-12-29T12:28:45;11.30;99.90
2300;DHT22;1158;48.750;9.078;2022-12-29T12:31:18;11.40;99.90
2300;DHT22;1158;48.750;9.078;2022-12-29T12:33:54;11.40;99.90
2300;DHT22;1158;48.750;9.078;2022-12-29T12:36:42;11.40;99.90
2300;DHT22;1158;48.750;9.078;2022-12-29T12:39:18;11.40;99.90
2300;DHT22;1158;48.750;9.078;2022-12-29T12:41:58;11.30;99.90
2300;DHT22;1158;48.750;9.078;2022-12-29T12:44:31;11.10;99.90
2300;DHT22;1158;48.750;9.078;2022-12-29T12:47:18;11.10;99.90
2300;DHT22;1158;48.750;9.078;2022-12-29T12:50:14;11.10;99.90
2300;DHT22;1158;48.750;9.078;2022-12-29T12:52:57;11.20;99.90
2300;DHT22;1158;48.750;9.078;2022-12-29T12:55:41;11.30;99.90
2300;DHT22;1158;48.750;9.078;2022-12-29T12:58:17;11.30;99.90
2300;DHT22;1158;48.750;9.078;2022-12-29T13:00:54;11.80;99.90
2300;DHT22;1158;48.750;9.078;2022-12-29T13:03:39;12.20;99.90
2300;DHT22;1158;48.750;9.078;2022-12-29T13:06:18;12.60;99.90
2300;DHT22;1158;48.750;9.078;2022-12-29T13:09:06;12.80;99.90
2300;DHT22;1158;48.750;9.078;2022-12-29T13:11:50;12.70;99.90
2300;DHT22;1158;48.750;9.078;2022-12-29T13:14:28;12.60;99.90
2300;DHT22;1158;48.750;9.078;2022-12-29T13:17:02;12.50;99.90
2300;DHT22;1158;48.750;9.078;2022-12-29T13:19:32;12.70;99.90
2300;DHT22;1158;48.750;9.078;2022-12-29T13:22:09;12.90;99.90
2300;DHT22;1158;48.750;9.078;2022-12-29T13:24:50;12.60;99.90
2300;DHT22;1158;48.750;9.078;2022-12-29T13:27:25;12.20;99.90
2300;DHT22;1158;48.750;9.078;2022-12-29T13:30:00;11.90;99.90
2300;DHT22;1158;48.750;9.078;2022-12-29T13:32:36;11.80;99.90
2300;DHT22;1158;48.750;9.078;2022-12-29T13:35:31;11.60;99.90
2300;DHT22;1158;48.750;9.078;2022-12-29T13:38:03;11.50;99.90
2300;DHT22;1158;48.750;9.078;2022-12-29T13:40:34;11.50;99.90
2300;DHT22;1158;48.750;9.078;2022-12-29T13:43:04;11.50;99.90
2300;DHT22;1158;48.750;9.078;2022-12-29T13:45:34;11.50;99.90
2300;DHT22;1158;48.750;9.078;2022-12-29T13:48:05;11.50;99.90
2300;DHT22;1158;48.750;9.078;2022-12-29T13:50:36;11.60;99.90
2300;DHT22;1158;48.750;9.078;2022-12-29T13:53:12;11.60;99.90
2300;DHT22;1158;48.750;9.078;2022-12-29T13:55:47;11.50;99.90
2300;DHT22;1158;48.750;9.078;2022-12-29T13:58:27;11.40;99.90
2300;DHT22;1158;48.750;9.078;2022-12-29T14:01:02;11.40;99.90
2300;DHT22;1158;48.750;9.078;2022-12-29T14:03:47;11.50;99.90
2300;DHT22;1158;48.750;9.078;2022-12-29T14:06:19;11.60;99.90
2300;DHT22;1158;48.750;9.078;2022-12-29T14:08:48;11.80;99.90
2300;DHT22;1158;48.750;9.078;2022-12-29T14:11:17;11.90;99.90
2300;DHT22;1158;48.750;9.078;2022-12-29T14:13:46;12.00;99.90
2300;DHT22;1158;48.750;9.078;2022-12-29T14:16:29;12.30;99.90
2300;DHT22;1158;48.750;9.078;2022-12-29T14:19:04;12.20;99.90
2300;DHT22;1158;48.750;9.078;2022-12-29T14:21:32;12.00;99.90
2300;DHT22;1158;48.750;9.078;2022-12-29T14:24:39;11.70;99.90
2300;DHT22;1158;48.750;9.078;2022-12-29T14:33:14;11.50;99.90
2300;DHT22;1158;48.750;9.078;2022-12-29T14:35:42;11.50;99.90
2300;DHT22;1158;48.750;9.078;2022-12-29T14:38:27;11.40;99.90
2300;DHT22;1158;48.750;9.078;2022-12-29T14:41:18;11.30;99.90
2300;DHT22;1158;48.750;9.078;2022-12-29T14:43:58;11.10;99.90
2300;DHT22;1158;48.750;9.078;2022-12-29T14:46:40;11.00;99.90
2300;DHT22;1158;48.750;9.078;2022-12-29T14:49:15;11.00;99.90
2300;DHT22;1158;48.750;9.078;2022-12-29T14:51:43;11.00;99.90
2300;DHT22;1158;48.750;9.078;2022-12-29T14:57:34;10.90;99.90
2300;DHT22;1158;48.750;9.078;2022-12-29T15:00:07;10.80;99.90
2300;DHT22;1158;48.750;9.078;2022-12-29T15:02:38;10.80;99.90
2300;DHT22;1158;48.750;9.078;2022-12-29T15:05:23;10.80;99.90
2300;DHT22;1158;48.750;9.078;2022-12-29T15:07:51;10.70;99.90
2300;DHT22;1158;48.750;9.078;2022-12-29T15:10:19;10.60;99.90
2300;DHT22;1158;48.750;9.078;2022-12-29T15:12:52;10.50;99.90
2300;DHT22;1158;48.750;9.078;2022-12-29T15:15:22;10.50;99.90
2300;DHT22;1158;48.750;9.078;2022-12-29T15:17:49;10.50;99.90
2300;DHT22;1158;48.750;9.078;2022-12-29T15:20:24;10.60;99.90
2300;DHT22;1158;48.750;9.078;2022-12-29T15:22:54;10.60;99.90
2300;DHT22;1158;48.750;9.078;2022-12-29T15:25:21;10.60;99.90
2300;DHT22;1158;48.750;9.078;2022-12-29T15:27:50;10.60;99.90
2300;DHT22;1158;48.750;9.078;2022-12-29T15:30:18;10.60;99.90
2300;DHT22;1158;48.750;9.078;2022-12-29T15:32:46;10.60;99.90
2300;DHT22;1158;48.750;9.078;2022-12-29T15:35:30;10.60;99.90
2300;DHT22;1158;48.750;9.078;2022-12-29T15:37:58;10.60;99.90
2300;DHT22;1158;48.750;9.078;2022-12-29T15:40:27;10.50;99.90
2300;DHT22;1158;48.750;9.078;2022-12-29T15:43:18;10.50;99.90
2300;DHT22;1158;48.750;9.078;2022-12-29T15:45:47;10.40;99.90
2300;DHT22;1158;48.750;9.078;2022-12-29T15:48:17;10.40;99.90
2300;DHT22;1158;48.750;9.078;2022-12-29T15:50:46;10.50;99.90
2300;DHT22;1158;48.750;9.078;2022-12-29T15:53:19;10.50;99.90
2300;DHT22;1158;48.750;9.078;2022-12-29T15:55:50;10.50;99.90
2300;DHT22;1158;48.750;9.078;2022-12-29T15:58:19;10.20;99.90
2300;DHT22;1158;48.750;9.078;2022-12-29T16:00:47;9.80;99.90
2300;DHT22;1158;48.750;9.078;2022-12-29T16:03:15;9.50;99.90
2300;DHT22;1158;48.750;9.078;2022-12-29T16:05:51;9.20;99.90
2300;DHT22;1158;48.750;9.078;2022-12-29T16:08:28;8.90;99.90
2300;DHT22;1158;48.750;9.078;2022-12-29T16:10:58;8.80;99.90
2300;DHT22;1158;48.750;9.078;2022-12-29T16:13:27;8.60;99.90
2300;DHT22;1158;48.750;9.078;2022-12-29T16:15:58;8.60;99.90
2300;DHT22;1158;48.750;9.078;2022-12-29T16:18:28;8.50;99.90
2300;DHT22;1158;48.750;9.078;2022-12-29T16:20:57;8.40;99.90
2300;DHT22;1158;48.750;9.078;2022-12-29T16:23:25;8.30;99.90
2300;DHT22;1158;48.750;9.078;2022-12-29T16:25:53;8.30;99.90
2300;DHT22;1158;48.750;9.078;2022-12-29T16:28:24;8.20;99.90
2300;DHT22;1158;48.750;9.078;2022-12-29T16:30:58;8.20;99.90
2300;DHT22;1158;48.750;9.078;2022-12-29T16:33:38;8.10;99.90
2300;DHT22;1158;48.750;9.078;2022-12-29T16:36:28;8.10;99.90
2300;DHT22;1158;48.750;9.078;2022-12-29T16:39:21;8.10;99.90
2300;DHT22;1158;48.750;9.078;2022-12-29T16:41:51;8.10;99.90
2300;DHT22;1158;48.750;9.078;2022-12-29T16:44:20;8.10;99.90